• Join FlightAware (Why Join?)
  • Login
  • US Flag 
11:35AM EDT


 

Airport Tracker/Info


-or-


 

Live Flight TrackerFlight Track Log ✈ AWE3417 ✈ 11-Apr-2013 ✈ KMHT - KDCA

Flight Track Log - Related Links

Times and Time Zones

All times are in EDT time to prevent confusion due to time zone crossing. See the AWE3417 flight status page for this flight to view local times or setup timezone preferences in your user account.

Time Position Orientation Groundspeed Altitude Reporting Facility
EDT Latitude Longitude Course Direction KTS MPH feet Rate Location/Type
05:17PM 42.9500 -71.4333 202° Southwest 136 157 1,300  Level KA90
05:18PM 43.0000 -71.4667 334° Northwest 206 237 3,700 2,340 Climbing KA90
05:19PM 43.0595 -71.0714 65° Northeast  Level FlightAware Approximate
05:19PM 43.0500 -71.4167 36° Northeast 278 320 6,500  Level KA90
05:20PM 43.0607 -70.9494 132° Southeast  Level FlightAware Approximate
05:21PM 42.9800 -70.8685 202° Southwest  Level FlightAware Approximate
05:21PM 43.0564 -71.2069 88° East 331 381 10,600  Level Boston Center
05:22PM 42.8853 -70.9212 202° Southwest  Level FlightAware Approximate
05:22PM 43.0694 -71.0758 82° East 369 425 12,900  Level Boston Center
05:23PM 43.0322 -70.9261 109° East 377 434 15,200 2,520 Climbing Boston Center
05:24PM 42.9486 -70.9056 170° South 318 366 18,000 2,280 Climbing Boston Center
05:25PM 42.8636 -70.9417 197° South 297 342 19,800 2,100 Climbing Boston Center
05:26PM 42.7747 -70.9861 200° South 314 361 22,200 2,220 Climbing Boston Center
05:27PM 42.6814 -71.0336 201° Southwest 343 395 24,200 1,800 Climbing Boston Center
05:28PM 42.5883 -71.0864 203° Southwest 358 412 25,900 1,620 Climbing Boston Center
05:29PM 42.5289 -71.1919 233° Southwest 353 406 27,500 1,560 Climbing Boston Center
05:30PM 42.4719 -71.3058 236° Southwest 355 409 29,000 1,260 Climbing Boston Center
05:31PM 42.4167 -71.4192 237° Southwest 363 418 30,000 480 Climbing Boston Center
05:32PM 42.3592 -71.5353 236° Southwest 370 426 30,000  Level Boston Center
05:33PM 42.2914 -71.6542 232° Southwest 375 432 30,000  Level Boston Center
05:34PM 42.2339 -71.7700 236° Southwest 375 432 30,000  Level Boston Center
05:35PM 42.1761 -71.8853 236° Southwest 375 432 30,000  Level Boston Center
05:36PM 42.1161 -71.9978 234° Southwest 375 432 30,000  Level Boston Center
05:37PM 42.0561 -72.1158 236° Southwest 380 437 30,000  Level Boston Center
05:38PM 41.9958 -72.2278 234° Southwest 380 437 30,000  Level Boston Center
05:39PM 41.9378 -72.3425 236° Southwest 380 437 30,000  Level Boston Center
05:40PM 41.8772 -72.4569 235° Southwest 380 437 30,000  Level Boston Center
05:41PM 41.8189 -72.5711 236° Southwest 380 437 30,000  Level Boston Center
05:42PM 41.7603 -72.6822 235° Southwest 380 437 30,000  Level Boston Center
05:43PM 41.6997 -72.7961 235° Southwest 380 437 30,000  Level Boston Center
05:44PM 41.6386 -72.9094 234° Southwest 380 437 30,000  Level Boston Center
05:45PM 41.5797 -73.0228 235° Southwest 380 437 30,000 -420 Level Boston Center
05:46PM 41.5250 -73.1333 237° Southwest 371 427 29,200 -900 Descending Boston Center
05:47PM 41.4658 -73.2433 234° Southwest 371 427 28,200 -420 Descending Boston Center
05:49PM 41.3542 -73.4467 234° Southwest 375 432 28,000 -120 Descending New York Center
05:50PM 41.2953 -73.5575 235° Southwest 375 432 28,000  Level New York Center
05:51PM 41.2322 -73.6681 233° Southwest 380 437 28,000  Level New York Center
05:52PM 41.1692 -73.7783 233° Southwest 380 437 28,000  Level New York Center
05:53PM 41.1039 -73.8856 231° Southwest 386 444 28,000  Level New York Center
05:54PM 41.0406 -73.9925 232° Southwest 386 444 28,000  Level New York Center
05:55PM 40.9750 -74.0994 231° Southwest 386 444 28,000  Level New York Center
05:56PM 40.8989 -74.2164 229° Southwest 386 444 28,000  Level New York Center
05:57PM 40.8353 -74.3228 232° Southwest 386 444 28,000  Level New York Center
05:58PM 40.7694 -74.4289 231° Southwest 386 444 28,000  Level New York Center
05:59PM 40.7017 -74.5322 229° Southwest 386 444 28,000  Level New York Center
06:00PM 40.6317 -74.6375 229° Southwest 386 444 28,000 -540 Level New York Center
06:01PM 40.5636 -74.7403 229° Southwest 386 444 27,000 -1,080 Descending New York Center
06:02PM 40.4956 -74.8428 229° Southwest 386 444 25,900 -1,140 Descending New York Center
06:03PM 40.4294 -74.9453 230° Southwest 375 432 24,800 -1,140 Descending New York Center
06:04PM 40.4103 -75.0694 259° West 345 397 23,700 -1,440 Descending New York Center
06:05PM 40.3997 -75.1914 264° West 345 397 21,900 -1,860 Descending New York Center
06:06PM 40.3767 -75.3017 255° West 340 391 20,000 -1,020 Descending New York Center
06:07PM 40.2967 -75.3753 215° Southwest 311 358 20,000  Level New York Center
06:08PM 40.2064 -75.4483 212° Southwest 346 398 20,000  Level New York Center
06:09PM 40.1158 -75.5181 210° Southwest 371 427 20,000  Level New York Center
06:10PM 40.0297 -75.5881 212° Southwest 376 433 20,000  Level New York Center
06:11PM 39.9617 -75.6728 224° Southwest 382 440 20,000  Level New York Center
06:12PM 39.8928 -75.7708 228° Southwest 375 432 20,000  Level New York Center
06:13PM 39.8258 -75.8742 230° Southwest 375 432 20,000  Level New York Center
06:14PM 39.7547 -75.9744 227° Southwest 380 437 20,000 -300 Level New York Center
06:15PM 39.6897 -76.0750 230° Southwest 380 437 19,400 -1,320 Descending New York Center
06:16PM 39.6142 -76.1797 227° Southwest 367 422 17,400 -2,160 Descending New York Center
06:17PM 39.5167 -76.3333 231° Southwest 339 390 14,100 -2,160 Descending Potomac TRACON
06:18PM 39.4500 -76.4167 224° Southwest 331 381 12,000 -1,140 Descending Potomac TRACON
06:19PM 39.3833 -76.4667 210° Southwest 328 377 12,000  Level Potomac TRACON
06:20PM 39.3167 -76.5333 218° Southwest 331 381 12,000 -660 Level Potomac TRACON
06:21PM 39.2333 -76.6000 212° Southwest 322 371 10,700 -1,020 Descending Potomac TRACON
06:22PM 39.1667 -76.6667 218° Southwest 270 311 10,000 -360 Descending Potomac TRACON
06:23PM 39.1167 -76.7333 226° Southwest 262 302 10,000 -180 Level Potomac TRACON
06:24PM 39.0667 -76.8000 226° Southwest 262 302 9,700 -1,200 Descending Potomac TRACON
06:25PM 39.0167 -76.8500 218° Southwest 262 302 7,700 -1,980 Descending Potomac TRACON
06:26PM 38.9667 -76.9333 232° Southwest 271 312 6,000 -900 Descending Potomac TRACON
06:27PM 38.9833 -77.0167 284° West 221 254 5,900 -780 Descending Potomac TRACON
06:28PM 39.0167 -77.0667 311° West 216 249 4,500 -1,440 Descending Potomac TRACON
06:29PM 39.0500 -77.1167 311° West 216 249 3,200 -840 Descending Potomac TRACON
06:30PM 39.0667 -77.1833 288° West 211 243 2,900 -180 Descending Potomac TRACON
06:31PM 39.0667 -77.2500 270° West 190 219 2,900  Level Potomac TRACON
06:32PM 39.0167 -77.2167 153° Southeast 167 192 2,900  Level Potomac TRACON
06:33PM 38.9833 -77.1667 131° Southeast 166 191 2,900 -300 Level Potomac TRACON
06:34PM 38.9500 -77.1333 142° Southeast 169 194 2,400 -540 Descending Potomac TRACON